createdAt,value
2023-10-29T00:00:45.562Z,2.60
2023-10-29T00:03:13.179Z,2.53
2023-10-29T00:05:41.219Z,2.30
2023-10-29T00:08:10.185Z,2.40
2023-10-29T00:10:37.880Z,2.70
2023-10-29T00:13:05.560Z,2.50
2023-10-29T00:15:33.096Z,2.30
2023-10-29T00:18:02.648Z,2.00
2023-10-29T00:20:30.294Z,2.20
2023-10-29T00:22:57.874Z,2.20
2023-10-29T00:25:25.380Z,2.17
2023-10-29T00:27:53.194Z,2.20
2023-10-29T00:30:20.749Z,2.20
2023-10-29T00:32:48.393Z,2.13
2023-10-29T00:35:17.830Z,2.00
2023-10-29T00:37:45.394Z,2.07
2023-10-29T00:40:13.436Z,2.30
2023-10-29T00:42:41.094Z,2.53
2023-10-29T00:45:10.465Z,2.30
2023-10-29T00:47:38.671Z,2.60
2023-10-29T00:50:06.982Z,2.60
2023-10-29T00:52:37.131Z,2.40
2023-10-29T00:55:05.888Z,2.27
2023-10-29T00:57:33.458Z,2.20
2023-10-29T01:00:01.076Z,2.30
2023-10-29T01:02:28.733Z,2.20
2023-10-29T01:04:57.147Z,2.43
2023-10-29T01:07:24.843Z,2.03
2023-10-29T01:09:53.728Z,2.17
2023-10-29T01:12:22.105Z,2.00
2023-10-29T01:14:50.032Z,2.20
2023-10-29T01:17:18.429Z,2.03
2023-10-29T01:19:45.906Z,1.83
2023-10-29T01:22:13.485Z,1.90
2023-10-29T01:24:41.422Z,2.10
2023-10-29T01:27:11.221Z,2.03
2023-10-29T01:29:38.867Z,1.90
2023-10-29T01:32:07.052Z,2.03
2023-10-29T01:34:34.513Z,2.10
2023-10-29T01:37:01.998Z,2.17
2023-10-29T01:39:29.484Z,1.87
2023-10-29T01:41:59.042Z,2.10
2023-10-29T01:44:28.781Z,2.23
2023-10-29T01:46:56.696Z,1.90
2023-10-29T01:49:24.165Z,2.30
2023-10-29T01:51:51.725Z,2.20
2023-10-29T01:54:19.220Z,2.00
2023-10-29T01:56:46.832Z,2.13
2023-10-29T01:59:15.949Z,2.00
2023-10-29T02:01:44.892Z,2.47
2023-10-29T02:04:13.061Z,2.23
2023-10-29T02:06:41.052Z,2.00
2023-10-29T02:09:10.156Z,1.90
2023-10-29T02:11:38.028Z,2.20
2023-10-29T02:14:05.748Z,1.97
2023-10-29T02:16:33.390Z,2.10
2023-10-29T02:19:02.288Z,2.13
2023-10-29T02:21:29.811Z,2.10
2023-10-29T02:24:02.165Z,2.17
2023-10-29T02:26:30.296Z,1.80
2023-10-29T02:28:57.783Z,2.10
2023-10-29T02:31:25.382Z,2.00
2023-10-29T02:33:52.960Z,1.90
2023-10-29T02:36:20.510Z,2.00
2023-10-29T02:38:47.993Z,2.30
2023-10-29T02:41:16.813Z,1.90
2023-10-29T02:43:44.307Z,2.10
2023-10-29T02:46:12.467Z,2.27
2023-10-29T02:48:40.036Z,1.80
2023-10-29T02:51:12.393Z,1.97
2023-10-29T02:53:40.176Z,2.00
2023-10-29T02:56:07.755Z,2.00
2023-10-29T02:58:36.861Z,2.00
2023-10-29T03:01:05.446Z,2.00
2023-10-29T03:03:33.157Z,1.80
2023-10-29T03:06:00.769Z,1.70
2023-10-29T03:08:28.465Z,1.87
2023-10-29T03:10:56.017Z,1.97
2023-10-29T03:13:23.584Z,2.00
2023-10-29T03:15:52.413Z,2.00
2023-10-29T03:18:19.986Z,1.80
2023-10-29T03:20:47.558Z,2.03
2023-10-29T03:23:15.455Z,1.87
2023-10-29T03:25:45.908Z,2.20
2023-10-29T03:28:13.795Z,1.90
2023-10-29T03:30:41.249Z,2.07
2023-10-29T03:33:10.165Z,2.10
2023-10-29T03:35:37.809Z,1.80
2023-10-29T03:38:05.654Z,2.00
2023-10-29T03:40:33.147Z,1.87
2023-10-29T03:43:00.646Z,1.90
2023-10-29T03:45:28.182Z,1.80
2023-10-29T03:47:55.821Z,2.30
2023-10-29T03:50:24.735Z,1.87
2023-10-29T03:52:52.220Z,1.93
2023-10-29T03:55:20.291Z,2.07
2023-10-29T03:57:47.740Z,1.90
2023-10-29T04:00:15.797Z,1.87
2023-10-29T04:02:43.553Z,1.90
2023-10-29T04:05:11.649Z,1.90
2023-10-29T04:07:40.787Z,2.10
2023-10-29T04:10:09.530Z,1.83
2023-10-29T04:12:37.016Z,1.90
2023-10-29T04:15:05.982Z,1.80
2023-10-29T04:17:33.868Z,1.80
2023-10-29T04:20:01.976Z,2.00
2023-10-29T04:22:29.415Z,2.00
2023-10-29T04:24:58.199Z,1.90
2023-10-29T04:27:25.673Z,2.10
2023-10-29T04:29:53.175Z,1.90
2023-10-29T04:32:20.702Z,1.90
2023-10-29T04:34:48.436Z,2.30
2023-10-29T04:37:15.969Z,2.30
2023-10-29T04:39:45.471Z,2.00
2023-10-29T04:42:14.281Z,2.20
2023-10-29T04:44:41.844Z,2.00
2023-10-29T04:47:09.331Z,2.10
2023-10-29T04:49:36.769Z,2.30
2023-10-29T04:52:04.626Z,2.20
2023-10-29T04:54:32.544Z,2.20
2023-10-29T04:57:00.137Z,2.30
2023-10-29T04:59:28.997Z,2.30
2023-10-29T05:01:56.640Z,2.57
2023-10-29T05:04:24.200Z,2.40
2023-10-29T05:06:51.733Z,2.00
2023-10-29T05:09:19.250Z,2.30
2023-10-29T05:11:46.756Z,2.20
2023-10-29T05:14:14.292Z,2.20
2023-10-29T05:16:43.170Z,2.20
2023-10-29T05:19:10.740Z,2.27
2023-10-29T05:21:38.188Z,2.27
2023-10-29T05:24:06.196Z,2.27
2023-10-29T05:26:33.675Z,2.50
2023-10-29T05:29:01.212Z,2.10
2023-10-29T05:31:28.924Z,2.17
2023-10-29T05:33:57.708Z,2.10
2023-10-29T05:36:25.249Z,2.33
2023-10-29T05:38:52.748Z,2.00
2023-10-29T05:41:20.417Z,2.10
2023-10-29T05:43:47.871Z,2.00
2023-10-29T05:46:15.869Z,2.10
2023-10-29T05:48:43.589Z,1.90
2023-10-29T05:51:14.086Z,1.97
2023-10-29T05:53:41.669Z,2.13
2023-10-29T05:56:09.152Z,2.00
2023-10-29T05:58:36.654Z,1.70
2023-10-29T06:01:04.426Z,2.00
2023-10-29T06:03:32.099Z,2.13
2023-10-29T06:06:01.300Z,2.10
2023-10-29T06:08:30.166Z,1.90
2023-10-29T06:10:58.181Z,2.03
2023-10-29T06:13:25.919Z,1.70
2023-10-29T06:15:53.522Z,1.67
2023-10-29T06:18:21.056Z,2.03
2023-10-29T06:20:48.719Z,1.90
2023-10-29T06:23:16.296Z,1.70
2023-10-29T06:25:45.243Z,1.90
2023-10-29T06:28:12.766Z,1.70
2023-10-29T06:30:40.272Z,1.73
2023-10-29T06:33:07.835Z,1.90
2023-10-29T06:35:35.511Z,1.80
2023-10-29T06:38:03.081Z,2.10
2023-10-29T06:40:30.581Z,1.80
2023-10-29T06:42:59.374Z,1.60
2023-10-29T06:45:26.827Z,1.90
2023-10-29T06:47:54.344Z,2.10
2023-10-29T06:50:21.838Z,2.00
2023-10-29T06:52:49.313Z,1.90
2023-10-29T06:55:16.805Z,1.77
2023-10-29T06:57:44.334Z,2.10
2023-10-29T07:00:14.290Z,2.07
2023-10-29T07:02:41.910Z,1.90
2023-10-29T07:05:10.058Z,1.90
2023-10-29T07:07:37.595Z,1.87
2023-10-29T07:10:05.930Z,1.60
2023-10-29T07:12:33.696Z,1.77
2023-10-29T07:15:01.185Z,1.73
2023-10-29T07:17:30.227Z,1.80
2023-10-29T07:19:58.195Z,1.53
2023-10-29T07:22:25.699Z,1.67
2023-10-29T07:24:53.143Z,1.70
2023-10-29T07:27:20.590Z,1.60
2023-10-29T07:29:48.056Z,1.70
2023-10-29T07:32:15.553Z,1.70
2023-10-29T07:34:44.460Z,1.47
2023-10-29T07:37:13.440Z,1.70
2023-10-29T07:39:40.997Z,1.50
2023-10-29T07:42:09.194Z,1.60
2023-10-29T07:44:37.032Z,1.60
2023-10-29T07:47:09.244Z,1.70
2023-10-29T07:49:38.404Z,1.70
2023-10-29T07:52:07.771Z,1.60
2023-10-29T07:54:35.230Z,1.77
2023-10-29T07:57:02.778Z,1.60
2023-10-29T07:59:30.312Z,1.60
2023-10-29T08:01:57.822Z,1.70
2023-10-29T08:04:25.425Z,1.60
2023-10-29T08:06:52.956Z,1.73
2023-10-29T08:09:23.223Z,1.77
2023-10-29T08:11:50.931Z,1.80
2023-10-29T08:14:18.401Z,1.80
2023-10-29T08:16:45.925Z,1.63
2023-10-29T08:19:13.723Z,1.70
2023-10-29T08:21:41.170Z,3.00
2023-10-29T08:24:09.484Z,2.37
2023-10-29T08:26:38.383Z,2.87
2023-10-29T08:29:05.875Z,2.90
2023-10-29T08:31:33.390Z,3.27
2023-10-29T08:34:00.929Z,12.07
2023-10-29T08:36:29.326Z,5.60
2023-10-29T08:38:56.831Z,4.03
2023-10-29T08:41:24.337Z,5.07
2023-10-29T08:43:53.441Z,5.13
2023-10-29T08:46:21.142Z,4.27
2023-10-29T08:48:48.726Z,3.50
2023-10-29T08:51:16.944Z,2.90
2023-10-29T08:53:44.525Z,3.10
2023-10-29T08:56:12.031Z,2.83
2023-10-29T08:58:39.994Z,3.13
2023-10-29T09:01:12.484Z,3.00
2023-10-29T09:03:40.165Z,2.87
2023-10-29T09:06:08.679Z,3.50
2023-10-29T09:08:37.162Z,5.00
2023-10-29T09:11:05.053Z,10.03
2023-10-29T09:13:32.527Z,8.37
2023-10-29T09:16:00.707Z,8.47
2023-10-29T09:18:29.971Z,6.63
2023-10-29T09:20:57.724Z,5.13
2023-10-29T09:23:25.278Z,4.83
2023-10-29T09:25:52.759Z,3.30
2023-10-29T09:28:22.041Z,3.20
2023-10-29T09:30:49.670Z,2.40
2023-10-29T09:33:17.630Z,2.00
2023-10-29T09:35:46.594Z,2.10
2023-10-29T09:38:14.136Z,1.80
2023-10-29T09:40:41.809Z,1.87
2023-10-29T09:43:10.741Z,2.47
2023-10-29T09:45:46.975Z,3.73
2023-10-29T09:48:15.186Z,4.27
2023-10-29T09:50:44.166Z,4.40
2023-10-29T09:53:16.580Z,4.43
2023-10-29T09:55:44.238Z,3.93
2023-10-29T09:58:11.766Z,3.00
2023-10-29T10:00:39.566Z,2.93
2023-10-29T10:03:07.233Z,2.40
2023-10-29T10:05:35.301Z,2.50
2023-10-29T10:08:02.861Z,3.00
2023-10-29T10:10:39.727Z,2.40
2023-10-29T10:13:07.960Z,2.27
2023-10-29T10:15:35.897Z,2.20
2023-10-29T10:18:05.783Z,1.97
2023-10-29T10:20:33.813Z,2.10
2023-10-29T10:23:02.784Z,2.10
2023-10-29T10:25:31.436Z,1.83
2023-10-29T10:28:01.708Z,1.80
2023-10-29T10:30:30.748Z,1.73
2023-10-29T10:33:10.693Z,1.63
2023-10-29T10:35:43.024Z,1.60
2023-10-29T10:38:11.187Z,1.50
2023-10-29T10:40:39.091Z,1.50
2023-10-29T10:43:08.757Z,1.60
2023-10-29T10:45:38.327Z,1.63
2023-10-29T10:48:07.620Z,1.70
2023-10-29T10:50:36.498Z,1.73
2023-10-29T10:53:04.212Z,1.90
2023-10-29T10:55:50.818Z,1.80
2023-10-29T10:58:23.477Z,1.70
2023-10-29T11:00:51.520Z,1.60
2023-10-29T11:03:31.695Z,1.70
2023-10-29T11:06:00.479Z,1.90
2023-10-29T11:08:28.421Z,1.80
2023-10-29T11:10:56.155Z,1.60
2023-10-29T11:13:25.208Z,1.40
2023-10-29T11:15:52.769Z,1.67
2023-10-29T11:18:29.205Z,1.50
2023-10-29T11:20:57.761Z,1.40
2023-10-29T11:23:26.695Z,1.63
2023-10-29T11:26:22.758Z,1.53
2023-10-29T11:28:53.806Z,1.50
2023-10-29T11:31:22.281Z,1.40
2023-10-29T11:34:10.150Z,1.37
2023-10-29T11:36:39.284Z,1.30
2023-10-29T11:39:32.154Z,1.50
2023-10-29T11:42:00.895Z,1.50
2023-10-29T11:44:31.022Z,1.10
2023-10-29T11:47:06.150Z,1.40
2023-10-29T11:50:13.436Z,1.30
2023-10-29T11:52:45.278Z,1.40
2023-10-29T11:55:13.519Z,1.30
2023-10-29T11:57:47.074Z,1.47
2023-10-29T12:00:16.842Z,1.80
2023-10-29T12:02:47.504Z,1.33
2023-10-29T12:05:16.638Z,1.40
2023-10-29T12:07:44.201Z,1.50
2023-10-29T12:10:12.020Z,1.30
2023-10-29T12:12:41.335Z,1.60
2023-10-29T12:15:17.691Z,1.47
2023-10-29T12:17:46.207Z,1.60
2023-10-29T12:20:22.518Z,1.20
2023-10-29T12:22:55.962Z,1.40
2023-10-29T12:25:24.238Z,1.50
2023-10-29T12:27:52.166Z,1.20
2023-10-29T12:30:40.753Z,1.40
2023-10-29T12:33:19.165Z,1.30
2023-10-29T12:35:48.843Z,1.20
2023-10-29T12:38:16.564Z,1.10
2023-10-29T12:41:05.811Z,1.30
2023-10-29T12:43:38.266Z,1.20
2023-10-29T12:46:08.652Z,1.30
2023-10-29T12:48:37.601Z,1.20
2023-10-29T12:51:05.540Z,1.40
2023-10-29T12:53:33.695Z,1.40
2023-10-29T12:56:02.716Z,1.10
2023-10-29T12:58:31.485Z,1.10
2023-10-29T13:01:00.899Z,1.37
2023-10-29T13:03:30.115Z,1.10
2023-10-29T13:05:57.753Z,1.10
2023-10-29T13:08:26.564Z,1.10
2023-10-29T13:10:54.438Z,1.20
2023-10-29T13:13:24.374Z,1.10
2023-10-29T13:15:52.705Z,1.10
2023-10-29T13:18:20.490Z,1.10
2023-10-29T13:20:50.268Z,1.17
2023-10-29T13:23:17.775Z,1.00
2023-10-29T13:25:45.243Z,0.90
2023-10-29T13:28:12.700Z,1.30
2023-10-29T13:30:40.463Z,1.20
2023-10-29T13:33:09.293Z,1.17
2023-10-29T13:35:39.860Z,1.13
2023-10-29T13:38:09.508Z,1.00
2023-10-29T13:40:38.712Z,1.17
2023-10-29T13:43:06.178Z,1.10
2023-10-29T13:45:33.831Z,1.03
2023-10-29T13:48:01.430Z,1.10
2023-10-29T13:50:28.891Z,1.00
2023-10-29T13:52:56.981Z,1.20
2023-10-29T13:55:25.893Z,1.23
2023-10-29T13:57:53.368Z,1.10
2023-10-29T14:00:22.865Z,1.30
2023-10-29T14:02:52.951Z,1.30
2023-10-29T14:05:21.879Z,1.30
2023-10-29T14:07:49.323Z,1.20
2023-10-29T14:10:17.131Z,1.20
2023-10-29T14:12:47.064Z,1.30
2023-10-29T14:15:16.098Z,1.27
2023-10-29T14:17:44.128Z,1.37
2023-10-29T14:20:12.170Z,1.43
2023-10-29T14:22:39.621Z,1.37
2023-10-29T14:25:08.756Z,1.33
2023-10-29T14:27:36.411Z,1.50
2023-10-29T14:30:06.768Z,1.40
2023-10-29T14:32:34.369Z,1.30
2023-10-29T14:35:01.871Z,1.10
2023-10-29T14:37:29.312Z,1.17
2023-10-29T14:39:56.820Z,1.23
2023-10-29T14:42:26.277Z,1.30
2023-10-29T14:44:53.949Z,1.20
2023-10-29T14:47:22.795Z,1.47
2023-10-29T14:49:50.285Z,1.37
2023-10-29T14:52:17.797Z,1.20
2023-10-29T14:54:45.305Z,1.20
2023-10-29T14:57:28.536Z,1.40
2023-10-29T14:59:57.539Z,1.40
2023-10-29T15:02:26.582Z,1.50
2023-10-29T15:04:55.194Z,1.70
2023-10-29T15:07:22.843Z,1.80
2023-10-29T15:09:50.399Z,1.67
2023-10-29T15:12:18.402Z,1.73
2023-10-29T15:14:48.088Z,1.70
2023-10-29T15:17:17.933Z,1.60
2023-10-29T15:19:51.989Z,1.60
2023-10-29T15:22:19.635Z,1.90
2023-10-29T15:24:47.483Z,1.40
2023-10-29T15:27:15.113Z,1.90
2023-10-29T15:29:43.749Z,1.70
2023-10-29T15:32:11.641Z,1.70
2023-10-29T15:34:39.218Z,1.70
2023-10-29T15:37:07.999Z,1.70
2023-10-29T15:39:35.554Z,1.90
2023-10-29T15:42:03.132Z,1.90
2023-10-29T15:44:32.984Z,1.80
2023-10-29T15:47:00.459Z,1.80
2023-10-29T15:49:27.909Z,2.10
2023-10-29T15:51:55.401Z,2.10
2023-10-29T15:54:26.149Z,2.40
2023-10-29T15:56:53.662Z,2.50
2023-10-29T15:59:21.907Z,2.20
2023-10-29T16:01:50.117Z,2.17
2023-10-29T16:04:18.377Z,2.10
2023-10-29T16:06:45.923Z,1.80
2023-10-29T16:09:13.642Z,1.97
2023-10-29T16:11:44.067Z,2.00
2023-10-29T16:14:13.228Z,1.90
2023-10-29T16:16:40.734Z,1.87
2023-10-29T16:19:08.257Z,2.27
2023-10-29T16:21:35.874Z,2.33
2023-10-29T16:24:04.240Z,2.27
2023-10-29T16:26:31.791Z,2.20
2023-10-29T16:29:00.597Z,1.93
2023-10-29T16:31:28.341Z,2.20
2023-10-29T16:33:55.918Z,2.30
2023-10-29T16:36:23.772Z,2.13
2023-10-29T16:38:51.353Z,1.70
2023-10-29T16:41:18.870Z,1.70
2023-10-29T16:43:50.184Z,1.60
2023-10-29T16:46:19.924Z,1.30
2023-10-29T16:48:48.269Z,1.40
2023-10-29T16:51:15.852Z,1.77
2023-10-29T16:53:43.357Z,1.70
2023-10-29T16:56:12.496Z,1.43
2023-10-29T16:58:41.676Z,1.60
2023-10-29T17:01:12.126Z,1.60
2023-10-29T17:03:41.496Z,1.60
2023-10-29T17:06:09.350Z,1.60
2023-10-29T17:08:36.848Z,1.50
2023-10-29T17:11:04.676Z,1.70
2023-10-29T17:13:32.120Z,1.80
2023-10-29T17:16:00.745Z,1.77
2023-10-29T17:18:28.554Z,1.70
2023-10-29T17:20:59.993Z,1.60
2023-10-29T17:23:28.032Z,1.60
2023-10-29T17:25:56.373Z,1.40
2023-10-29T17:28:23.900Z,1.60
2023-10-29T17:30:51.414Z,1.53
2023-10-29T17:33:19.053Z,1.53
2023-10-29T17:35:46.712Z,1.40
2023-10-29T17:38:15.552Z,1.20
2023-10-29T17:40:43.728Z,1.30
2023-10-29T17:43:12.215Z,1.20
2023-10-29T17:45:39.834Z,1.13
2023-10-29T17:48:07.627Z,1.10
2023-10-29T17:50:35.292Z,1.10
2023-10-29T17:53:03.402Z,1.20
2023-10-29T17:55:32.280Z,1.47
2023-10-29T17:58:00.797Z,1.30
2023-10-29T18:00:29.493Z,1.30
2023-10-29T18:02:57.179Z,1.43
2023-10-29T18:05:24.750Z,1.50
2023-10-29T18:07:52.264Z,1.23
2023-10-29T18:10:19.977Z,1.60
2023-10-29T18:12:48.836Z,1.50
2023-10-29T18:15:16.822Z,1.60
2023-10-29T18:17:44.375Z,1.30
2023-10-29T18:20:12.816Z,1.50
2023-10-29T18:22:40.285Z,1.30
2023-10-29T18:25:08.820Z,1.30
2023-10-29T18:27:37.086Z,1.33
2023-10-29T18:30:07.885Z,1.23
2023-10-29T18:32:35.967Z,1.20
2023-10-29T18:35:03.530Z,1.60
2023-10-29T18:37:31.083Z,1.50
2023-10-29T18:39:58.594Z,1.70
2023-10-29T18:42:26.243Z,1.50
2023-10-29T18:44:53.985Z,1.70
2023-10-29T18:47:24.781Z,1.60
2023-10-29T18:49:53.041Z,1.80
2023-10-29T18:52:20.581Z,1.67
2023-10-29T18:54:48.134Z,1.73
2023-10-29T18:57:15.924Z,1.50
2023-10-29T18:59:43.375Z,1.60
2023-10-29T19:02:10.931Z,1.50
2023-10-29T19:04:39.798Z,1.50
2023-10-29T19:07:07.512Z,1.40
2023-10-29T19:09:35.536Z,1.87
2023-10-29T19:12:04.206Z,1.57
2023-10-29T19:14:32.427Z,1.50
2023-10-29T19:17:00.513Z,1.50
2023-10-29T19:19:28.018Z,1.60
2023-10-29T19:21:56.968Z,1.43
2023-10-29T19:24:25.983Z,1.40
2023-10-29T19:26:53.571Z,1.43
2023-10-29T19:29:21.168Z,1.50
2023-10-29T19:31:48.654Z,1.70
2023-10-29T19:34:16.085Z,1.60
2023-10-29T19:36:43.620Z,1.50
2023-10-29T19:39:13.743Z,1.40
2023-10-29T19:41:41.342Z,1.80
2023-10-29T19:44:08.808Z,1.83
2023-10-29T19:46:36.314Z,1.60
2023-10-29T19:49:04.799Z,1.67
2023-10-29T19:51:32.562Z,1.60
2023-10-29T19:54:01.358Z,1.60
2023-10-29T19:56:30.204Z,1.73
2023-10-29T19:59:00.390Z,1.80
2023-10-29T20:01:27.879Z,1.50
2023-10-29T20:03:55.639Z,1.37
2023-10-29T20:06:24.629Z,1.70
2023-10-29T20:08:52.695Z,1.40
2023-10-29T20:11:20.432Z,1.23
2023-10-29T20:13:50.415Z,1.10
2023-10-29T20:16:18.182Z,1.20
2023-10-29T20:18:45.837Z,1.30
2023-10-29T20:21:18.120Z,1.10
2023-10-29T20:23:47.613Z,1.10
2023-10-29T20:26:15.222Z,1.20
2023-10-29T20:28:43.102Z,1.40
2023-10-29T20:31:11.933Z,1.10
2023-10-29T20:33:39.582Z,1.20
2023-10-29T20:36:07.806Z,1.40
2023-10-29T20:38:35.942Z,1.50
2023-10-29T20:41:09.423Z,1.47
2023-10-29T20:43:37.098Z,1.57
2023-10-29T20:46:05.466Z,1.43
2023-10-29T20:48:34.509Z,1.20
2023-10-29T20:51:02.140Z,1.37
2023-10-29T20:53:30.332Z,1.40
2023-10-29T20:55:57.797Z,1.57
2023-10-29T20:58:25.323Z,1.20
2023-10-29T21:00:52.913Z,1.20
2023-10-29T21:03:20.675Z,1.30
2023-10-29T21:05:58.132Z,1.20
2023-10-29T21:08:26.402Z,1.20
2023-10-29T21:10:54.061Z,1.43
2023-10-29T21:13:22.604Z,1.70
2023-10-29T21:15:50.115Z,1.47
2023-10-29T21:18:17.616Z,1.50
2023-10-29T21:20:45.744Z,1.40
2023-10-29T21:23:15.246Z,1.50
2023-10-29T21:25:42.720Z,1.53
2023-10-29T21:28:10.303Z,1.50
2023-10-29T21:30:41.539Z,1.90
2023-10-29T21:33:09.182Z,1.80
2023-10-29T21:35:36.677Z,1.80
2023-10-29T21:38:04.167Z,1.80
2023-10-29T21:40:35.161Z,1.97
2023-10-29T21:43:03.230Z,1.87
2023-10-29T21:45:30.798Z,1.90
2023-10-29T21:47:58.383Z,1.90
2023-10-29T21:50:26.043Z,1.60
2023-10-29T21:52:53.537Z,1.60
2023-10-29T21:55:21.171Z,1.47
2023-10-29T21:57:50.540Z,1.70
2023-10-29T22:00:18.367Z,1.60
2023-10-29T22:02:45.995Z,1.70
2023-10-29T22:05:13.531Z,1.60
2023-10-29T22:07:41.095Z,1.70
2023-10-29T22:10:10.724Z,1.70
2023-10-29T22:12:38.684Z,1.90
2023-10-29T22:15:08.247Z,1.90
2023-10-29T22:17:35.819Z,1.80
2023-10-29T22:20:03.435Z,1.93
2023-10-29T22:22:30.871Z,2.33
2023-10-29T22:24:58.323Z,2.90
2023-10-29T22:27:25.948Z,2.77
2023-10-29T22:29:53.717Z,2.50
2023-10-29T22:32:22.592Z,2.10
2023-10-29T22:34:50.131Z,2.20
2023-10-29T22:37:17.618Z,2.03
2023-10-29T22:39:45.283Z,2.13
2023-10-29T22:42:12.808Z,1.80
2023-10-29T22:44:40.341Z,2.10
2023-10-29T22:47:07.866Z,2.50
2023-10-29T22:49:36.766Z,2.60
2023-10-29T22:52:04.780Z,2.60
2023-10-29T22:54:32.388Z,2.80
2023-10-29T22:57:00.164Z,2.70
2023-10-29T22:59:27.677Z,2.67
2023-10-29T23:01:55.309Z,2.27
2023-10-29T23:04:22.919Z,2.40
2023-10-29T23:06:51.880Z,2.30
2023-10-29T23:09:19.409Z,2.23
2023-10-29T23:11:46.939Z,2.43
2023-10-29T23:14:14.415Z,2.33
2023-10-29T23:16:41.959Z,2.30
2023-10-29T23:19:09.944Z,2.57
2023-10-29T23:21:37.930Z,2.60
2023-10-29T23:24:08.200Z,2.30
2023-10-29T23:26:35.714Z,2.80
2023-10-29T23:29:03.917Z,2.77
2023-10-29T23:31:31.881Z,2.77
2023-10-29T23:33:59.399Z,2.57
2023-10-29T23:36:26.938Z,2.60
2023-10-29T23:38:54.525Z,3.00
2023-10-29T23:41:23.296Z,2.73
2023-10-29T23:43:50.754Z,2.43
2023-10-29T23:46:18.283Z,2.63
2023-10-29T23:48:46.088Z,2.30
2023-10-29T23:51:13.590Z,2.40
2023-10-29T23:53:41.078Z,2.67
2023-10-29T23:56:08.597Z,2.73
2023-10-29T23:58:37.371Z,2.90
